Time;durP1;ratioP1;P1;durP2;ratioP2;P2;SDS_P1;SDS_P2;PMS_P1;PMS_P2;Temp;Humidity;BMP_temperature;BMP_pressure;BME280_temperature;BME280_humidity;BME280_pressure;Samples;Min_cycle;Max_cycle;Signal;HPM_P1;HPM_P2
2021/09/02 00:00:30;;;;;;;13.32;6.20;;;13.60;97.60;;;;;;5047473;28;20173;-84
2021/09/02 00:02:56;;;;;;;8.43;4.85;;;13.60;97.40;;;;;;5046462;28;20748;-82
2021/09/02 00:05:21;;;;;;;11.73;5.53;;;13.50;97.50;;;;;;5044582;28;20223;-84
2021/09/02 00:07:47;;;;;;;9.60;5.73;;;13.50;97.60;;;;;;5044112;28;20462;-83
2021/09/02 00:10:13;;;;;;;10.23;5.63;;;13.40;97.80;;;;;;5044888;28;20173;-82
2021/09/02 00:12:39;;;;;;;11.00;5.30;;;13.40;98.00;;;;;;5047493;28;20176;-83
2021/09/02 00:15:07;;;;;;;10.15;6.10;;;13.40;98.00;;;;;;5047354;28;20481;-83
2021/09/02 00:17:33;;;;;;;8.82;5.68;;;13.40;97.80;;;;;;5047158;28;20184;-84
2021/09/02 00:19:59;;;;;;;11.85;5.97;;;13.40;97.40;;;;;;5047201;28;20173;-83
2021/09/02 00:22:25;;;;;;;11.60;6.10;;;13.40;97.30;;;;;;5047646;28;20181;-82
2021/09/02 00:24:50;;;;;;;13.37;5.70;;;13.30;97.60;;;;;;5047250;28;20254;-82
2021/09/02 00:27:16;;;;;;;11.77;5.30;;;13.30;98.00;;;;;;5046296;28;20534;-82
2021/09/02 00:29:42;;;;;;;10.27;5.83;;;13.30;98.30;;;;;;5047259;28;20412;-82
2021/09/02 00:32:08;;;;;;;16.87;6.20;;;13.30;98.40;;;;;;5045815;28;20419;-83
2021/09/02 00:34:34;;;;;;;12.77;6.10;;;13.20;98.50;;;;;;5042798;28;20978;-79
2021/09/02 00:36:59;;;;;;;10.57;5.20;;;13.20;98.20;;;;;;5039247;28;20419;-78
2021/09/02 00:39:25;;;;;;;12.30;6.17;;;13.20;98.20;;;;;;5039245;28;20989;-79
2021/09/02 00:41:51;;;;;;;13.17;6.70;;;13.10;98.40;;;;;;5038990;28;20821;-79
2021/09/02 00:44:40;;;;;;;16.00;8.00;;;13.10;98.80;;;;;;5039211;28;20424;-79
2021/09/02 00:47:07;;;;;;;14.63;6.80;;;13.10;98.70;;;;;;5038977;28;20211;-79
2021/09/02 00:49:34;;;;;;;13.63;7.25;;;13.10;98.70;;;;;;5037975;28;20222;-79
2021/09/02 00:52:22;;;;;;;14.52;6.13;;;13.10;98.80;;;;;;5038604;28;20211;-78
2021/09/02 00:54:51;;;;;;;13.32;7.30;;;13.00;98.90;;;;;;5037249;28;20200;-79
2021/09/02 00:57:25;;;;;;;19.90;6.55;;;13.00;99.00;;;;;;5054965;28;20244;-79
2021/09/02 00:59:56;;;;;;;16.80;7.60;;;13.00;99.10;;;;;;5055731;28;20517;-79
2021/09/02 01:02:28;;;;;;;17.98;8.60;;;13.00;99.10;;;;;;5055079;28;20505;-78
2021/09/02 01:04:59;;;;;;;13.98;6.95;;;13.00;99.10;;;;;;5036817;28;20563;-79
2021/09/02 01:07:29;;;;;;;15.98;8.15;;;13.00;99.10;;;;;;5054633;28;20185;-78
2021/09/02 01:09:57;;;;;;;14.93;7.93;;;12.90;99.10;;;;;;5037745;28;20164;-79
2021/09/02 01:12:41;;;;;;;15.95;7.47;;;12.90;99.10;;;;;;5038230;28;20283;-79
2021/09/02 01:15:15;;;;;;;15.30;7.65;;;12.90;99.10;;;;;;5037287;28;20192;-79
2021/09/02 01:17:43;;;;;;;16.10;8.45;;;12.80;99.10;;;;;;5055160;28;20179;-79
2021/09/02 01:20:11;;;;;;;15.18;7.80;;;12.80;99.10;;;;;;5037300;28;20700;-79
2021/09/02 01:22:37;;;;;;;18.40;8.38;;;12.80;99.10;;;;;;5037106;28;20641;-79
2021/09/02 01:25:08;;;;;;;18.90;7.85;;;12.80;99.10;;;;;;5036945;28;20197;-79
2021/09/02 01:27:35;;;;;;;15.45;7.25;;;12.80;99.10;;;;;;5053553;28;20189;-79
2021/09/02 01:30:03;;;;;;;17.17;7.88;;;12.80;99.10;;;;;;5036520;28;20542;-78
2021/09/02 01:32:34;;;;;;;13.45;7.25;;;12.70;99.10;;;;;;5036523;28;20176;-78
2021/09/02 01:35:01;;;;;;;11.70;6.82;;;12.70;99.10;;;;;;5035992;28;20204;-79
2021/09/02 01:37:56;;;;;;;14.73;7.50;;;12.70;99.10;;;;;;5035947;28;20180;-78
2021/09/02 01:40:34;;;;;;;19.13;8.20;;;12.60;99.10;;;;;;5036045;28;20227;-78
2021/09/02 01:43:01;;;;;;;17.10;8.10;;;12.60;99.10;;;;;;5036180;28;20173;-78
2021/09/02 01:45:27;;;;;;;18.70;7.72;;;12.60;99.10;;;;;;5035809;28;20230;-79
2021/09/02 01:47:56;;;;;;;17.35;8.35;;;12.60;99.10;;;;;;5036470;28;20227;-78
2021/09/02 01:50:25;;;;;;;15.38;7.38;;;12.60;99.10;;;;;;5035986;28;20164;-78
2021/09/02 01:52:52;;;;;;;15.50;7.97;;;12.50;99.10;;;;;;5035791;28;20184;-79
2021/09/02 01:55:20;;;;;;;12.68;7.22;;;12.50;99.10;;;;;;5035920;28;20221;-79
2021/09/02 01:57:45;;;;;;;16.95;7.95;;;12.50;99.10;;;;;;5035867;28;20188;-78
2021/09/02 02:00:13;;;;;;;14.07;7.03;;;12.50;99.10;;;;;;5036171;28;20173;-78
2021/09/02 02:02:40;;;;;;;9.98;6.15;;;12.50;99.10;;;;;;5035963;28;20458;-79
2021/09/02 02:05:08;;;;;;;13.80;7.55;;;12.50;99.10;;;;;;5035556;28;20219;-79
2021/09/02 02:07:34;;;;;;;21.40;8.60;;;12.40;99.10;;;;;;5035591;28;20609;-80
2021/09/02 02:10:06;;;;;;;12.57;6.70;;;12.40;99.10;;;;;;5036441;28;20169;-79
2021/09/02 02:12:32;;;;;;;16.98;8.32;;;12.40;99.10;;;;;;5053289;28;20161;-79
2021/09/02 02:14:57;;;;;;;15.30;7.20;;;12.40;99.10;;;;;;5036433;28;20197;-79
2021/09/02 02:17:23;;;;;;;16.77;7.40;;;12.40;99.10;;;;;;5039294;28;20828;-79
2021/09/02 02:19:49;;;;;;;13.90;7.10;;;12.40;99.10;;;;;;5039867;28;20234;-79
2021/09/02 02:22:15;;;;;;;12.80;6.83;;;12.30;99.10;;;;;;5040143;28;20645;-79
2021/09/02 02:24:41;;;;;;;17.97;7.90;;;12.30;99.10;;;;;;5040541;28;20193;-78
2021/09/02 02:27:06;;;;;;;21.93;9.17;;;12.30;99.10;;;;;;5040103;28;20454;-78
2021/09/02 02:29:32;;;;;;;15.83;7.33;;;12.30;99.10;;;;;;5040417;28;20458;-79
2021/09/02 02:31:58;;;;;;;13.70;7.30;;;12.30;99.10;;;;;;5039879;28;20535;-79
2021/09/02 02:34:24;;;;;;;14.53;8.40;;;12.30;99.10;;;;;;5039663;28;20774;-79
2021/09/02 02:36:50;;;;;;;16.00;8.77;;;12.30;99.10;;;;;;5039920;28;20169;-79
2021/09/02 02:39:16;;;;;;;22.80;8.90;;;12.30;99.10;;;;;;5040035;28;20173;-79
2021/09/02 02:41:42;;;;;;;18.20;8.60;;;12.20;99.10;;;;;;5040017;28;20435;-79
2021/09/02 02:44:08;;;;;;;15.70;7.20;;;12.20;99.10;;;;;;5039821;28;20787;-79
2021/09/02 02:46:33;;;;;;;14.57;7.57;;;12.20;99.10;;;;;;5039551;28;20176;-79
2021/09/02 02:48:59;;;;;;;14.43;8.00;;;12.20;99.10;;;;;;5039292;28;20466;-78
2021/09/02 02:51:25;;;;;;;12.83;6.73;;;12.10;99.10;;;;;;5039287;28;20416;-78
2021/09/02 02:53:51;;;;;;;20.07;7.37;;;12.10;99.10;;;;;;5039303;28;20412;-78
2021/09/02 02:56:17;;;;;;;17.83;9.30;;;12.10;99.10;;;;;;5039420;28;20449;-79
2021/09/02 02:58:44;;;;;;;13.97;7.57;;;12.10;99.10;;;;;;5039640;28;20241;-79
2021/09/02 03:01:11;;;;;;;17.58;7.13;;;12.10;99.10;;;;;;5039581;28;20173;-79
2021/09/02 03:03:36;;;;;;;17.35;8.15;;;12.10;99.10;;;;;;5039362;28;20177;-79
2021/09/02 03:06:02;;;;;;;18.60;8.07;;;12.00;99.10;;;;;;5039069;28;20193;-79
2021/09/02 03:08:28;;;;;;;18.55;8.82;;;12.00;99.10;;;;;;5039284;28;20207;-79
2021/09/02 03:10:54;;;;;;;18.33;9.13;;;12.00;99.10;;;;;;5039414;28;20169;-79
2021/09/02 03:13:20;;;;;;;22.17;9.43;;;12.00;99.10;;;;;;5039464;28;20435;-80
2021/09/02 03:15:45;;;;;;;18.60;8.80;;;12.00;99.10;;;;;;5039347;28;20280;-79
2021/09/02 03:18:11;;;;;;;26.03;10.07;;;12.00;99.10;;;;;;5039443;28;20176;-79
2021/09/02 03:20:37;;;;;;;20.97;10.40;;;12.00;99.10;;;;;;5039589;28;20181;-79
2021/09/02 03:23:03;;;;;;;32.07;10.70;;;12.00;99.10;;;;;;5039458;28;20180;-79
2021/09/02 03:25:28;;;;;;;25.10;10.33;;;12.00;99.10;;;;;;5038767;28;20284;-79
2021/09/02 03:27:54;;;;;;;19.97;10.30;;;11.90;99.10;;;;;;5039113;28;21043;-78
2021/09/02 03:30:20;;;;;;;22.20;10.80;;;11.90;99.10;;;;;;5039611;28;20422;-79
2021/09/02 03:32:46;;;;;;;27.37;10.53;;;11.90;99.10;;;;;;5038575;28;20173;-78
2021/09/02 03:35:12;;;;;;;26.10;9.80;;;11.90;99.10;;;;;;5038836;28;20196;-78
2021/09/02 03:37:38;;;;;;;23.00;10.43;;;11.80;99.10;;;;;;5038626;28;20412;-79
2021/09/02 03:40:05;;;;;;;21.77;9.95;;;11.80;99.10;;;;;;5038705;28;20408;-79
2021/09/02 03:42:31;;;;;;;33.65;11.95;;;11.80;99.10;;;;;;5038457;28;20649;-79
2021/09/02 03:44:56;;;;;;;18.37;9.97;;;11.80;99.10;;;;;;5038211;28;20200;-79
2021/09/02 03:47:22;;;;;;;27.40;11.97;;;11.80;99.10;;;;;;5038314;28;20193;-79
2021/09/02 03:49:48;;;;;;;26.80;11.20;;;11.70;99.10;;;;;;5038766;28;20173;-79
2021/09/02 03:52:14;;;;;;;22.77;10.70;;;11.70;99.10;;;;;;5039199;28;20165;-79
2021/09/02 03:54:39;;;;;;;23.10;10.40;;;11.70;99.10;;;;;;5038931;28;20193;-78
2021/09/02 03:57:06;;;;;;;28.80;11.00;;;11.70;99.10;;;;;;5038442;28;20166;-79
2021/09/02 03:59:31;;;;;;;23.83;10.15;;;11.70;99.10;;;;;;5037927;28;20216;-78
2021/09/02 04:01:57;;;;;;;19.43;9.50;;;11.70;99.10;;;;;;5039408;28;20177;-78
2021/09/02 04:04:23;;;;;;;32.03;10.10;;;11.60;99.10;;;;;;5038700;28;20219;-80
2021/09/02 04:06:48;;;;;;;22.80;10.03;;;11.60;99.10;;;;;;5039329;28;20240;-79
2021/09/02 04:09:14;;;;;;;14.83;8.13;;;11.60;99.10;;;;;;5039327;28;20697;-80
2021/09/02 04:11:40;;;;;;;16.80;8.30;;;11.60;99.10;;;;;;5039535;28;20200;-80
2021/09/02 04:14:05;;;;;;;20.23;8.67;;;11.60;99.10;;;;;;5038971;28;20446;-80
2021/09/02 04:16:31;;;;;;;21.17;9.17;;;11.60;99.10;;;;;;5038803;28;20184;-80
2021/09/02 04:18:57;;;;;;;15.63;8.37;;;11.60;99.10;;;;;;5038879;28;20196;-79
2021/09/02 04:21:23;;;;;;;24.87;8.13;;;11.60;99.10;;;;;;5038497;28;20183;-80
2021/09/02 04:23:49;;;;;;;19.57;8.07;;;11.50;99.10;;;;;;5038375;28;20258;-80
2021/09/02 04:26:16;;;;;;;14.55;7.50;;;11.60;99.10;;;;;;5038247;28;20182;-80
2021/09/02 04:28:42;;;;;;;24.33;8.70;;;11.50;99.10;;;;;;5038059;28;20235;-80
2021/09/02 04:31:08;;;;;;;23.52;8.82;;;11.50;99.10;;;;;;5038304;28;20173;-80
2021/09/02 04:33:33;;;;;;;25.10;9.50;;;11.50;99.10;;;;;;5038148;28;20239;-80
2021/09/02 04:35:59;;;;;;;27.60;10.47;;;11.50;99.10;;;;;;5037813;28;20510;-79
2021/09/02 04:38:25;;;;;;;22.73;9.60;;;11.40;99.10;;;;;;5037544;28;20416;-79
2021/09/02 04:40:51;;;;;;;36.73;10.83;;;11.50;99.10;;;;;;5055407;28;20191;-80
2021/09/02 04:43:18;;;;;;;24.70;11.23;;;11.50;99.10;;;;;;5037947;28;20954;-78
2021/09/02 04:45:44;;;;;;;34.25;10.55;;;11.50;99.10;;;;;;5056577;28;20200;-80
2021/09/02 04:48:15;;;;;;;26.57;9.93;;;11.40;99.10;;;;;;5038250;28;20197;-79
2021/09/02 04:50:46;;;;;;;33.58;9.45;;;11.40;99.10;;;;;;5038212;28;20514;-80
2021/09/02 04:53:13;;;;;;;27.75;10.95;;;11.40;99.10;;;;;;5038278;28;20173;-80
2021/09/02 04:55:39;;;;;;;22.80;9.90;;;11.40;99.10;;;;;;5037648;28;20193;-80
2021/09/02 04:58:07;;;;;;;23.05;9.35;;;11.40;99.10;;;;;;5037907;28;20281;-80
2021/09/02 05:00:36;;;;;;;26.30;10.48;;;11.40;99.10;;;;;;5038208;28;20189;-79
2021/09/02 05:03:03;;;;;;;23.40;10.35;;;11.40;99.10;;;;;;5037624;28;20204;-79
2021/09/02 05:05:29;;;;;;;22.50;10.13;;;11.40;99.10;;;;;;5037784;28;20196;-79
2021/09/02 05:07:55;;;;;;;19.10;7.93;;;11.40;99.10;;;;;;5037657;28;20189;-79
2021/09/02 05:10:21;;;;;;;23.15;10.50;;;11.40;99.10;;;;;;5037179;28;20461;-79
2021/09/02 05:12:47;;;;;;;19.80;8.95;;;11.40;99.10;;;;;;5036867;28;20231;-79
2021/09/02 05:15:13;;;;;;;23.13;8.95;;;11.40;99.10;;;;;;5036811;28;20669;-79
2021/09/02 05:17:38;;;;;;;19.40;9.65;;;11.40;99.10;;;;;;5037466;28;20208;-79
2021/09/02 05:20:05;;;;;;;24.60;10.80;;;11.40;99.10;;;;;;5037775;28;20179;-78
2021/09/02 05:22:31;;;;;;;16.60;9.13;;;11.40;99.10;;;;;;5055077;28;20404;-78
2021/09/02 05:24:57;;;;;;;20.20;9.63;;;11.50;99.10;;;;;;5037103;28;20208;-79
2021/09/02 05:27:23;;;;;;;17.40;9.10;;;11.50;99.10;;;;;;5037103;28;20692;-79
2021/09/02 05:29:48;;;;;;;17.00;8.30;;;11.50;99.10;;;;;;5036638;28;20510;-79
2021/09/02 05:32:14;;;;;;;16.90;8.53;;;11.50;99.10;;;;;;5036578;28;20443;-79
2021/09/02 05:34:41;;;;;;;23.15;9.35;;;11.60;99.10;;;;;;5036549;28;20208;-79
2021/09/02 05:37:07;;;;;;;21.08;9.52;;;11.60;99.10;;;;;;5036152;28;20181;-79
2021/09/02 05:39:33;;;;;;;18.13;8.63;;;11.60;99.10;;;;;;5036572;28;20227;-79
2021/09/02 05:41:59;;;;;;;19.47;9.60;;;11.60;99.10;;;;;;5037165;28;20208;-78
2021/09/02 05:44:24;;;;;;;17.40;8.80;;;11.60;99.10;;;;;;5036440;28;20431;-79
2021/09/02 05:46:51;;;;;;;20.40;9.10;;;11.70;99.10;;;;;;5036854;28;20415;-79
2021/09/02 05:49:17;;;;;;;18.80;9.75;;;11.70;99.10;;;;;;5036718;28;20276;-79
2021/09/02 05:51:42;;;;;;;24.75;10.10;;;11.70;99.10;;;;;;5040075;28;20180;-78
2021/09/02 05:54:08;;;;;;;21.30;10.20;;;11.80;99.10;;;;;;5040956;28;20189;-79
2021/09/02 05:56:34;;;;;;;19.47;9.40;;;11.80;99.10;;;;;;5040871;28;20200;-79
2021/09/02 05:59:00;;;;;;;26.63;9.63;;;11.90;99.10;;;;;;5040264;28;20923;-79
2021/09/02 06:01:25;;;;;;;17.60;9.80;;;12.00;99.10;;;;;;5040331;28;20267;-79
2021/09/02 06:03:51;;;;;;;13.23;9.13;;;12.00;99.10;;;;;;5039917;28;20412;-79
2021/09/02 06:06:17;;;;;;;21.73;10.40;;;12.00;99.10;;;;;;5040387;28;20523;-79
2021/09/02 06:08:43;;;;;;;22.03;10.50;;;12.10;99.10;;;;;;5040252;28;20200;-79
2021/09/02 06:11:09;;;;;;;21.60;9.50;;;12.20;99.10;;;;;;5041235;28;20436;-79
2021/09/02 06:13:34;;;;;;;22.97;10.20;;;12.20;99.10;;;;;;5041349;28;20411;-79
2021/09/02 06:16:01;;;;;;;24.92;11.50;;;12.30;99.10;;;;;;5040881;28;20424;-79
2021/09/02 06:18:28;;;;;;;25.85;11.23;;;12.30;99.10;;;;;;5041024;28;20184;-79
2021/09/02 06:20:53;;;;;;;34.40;11.95;;;12.40;99.10;;;;;;5040361;28;20192;-79
2021/09/02 06:23:19;;;;;;;21.97;10.03;;;12.50;99.10;;;;;;5040571;28;20173;-80
2021/09/02 06:25:45;;;;;;;27.60;11.37;;;12.50;99.10;;;;;;5040293;28;20443;-79
2021/09/02 06:28:11;;;;;;;24.80;12.67;;;12.60;99.10;;;;;;5040824;28;20477;-79
2021/09/02 06:30:37;;;;;;;22.90;11.37;;;12.70;99.10;;;;;;5040572;28;20181;-79
2021/09/02 06:33:02;;;;;;;28.50;12.63;;;12.70;99.10;;;;;;5040838;28;20939;-79
2021/09/02 06:35:28;;;;;;;30.57;13.10;;;12.80;99.10;;;;;;5041143;28;20432;-82
2021/09/02 06:37:54;;;;;;;32.67;13.07;;;12.90;99.10;;;;;;5041281;28;20415;-82
2021/09/02 06:40:20;;;;;;;35.17;12.75;;;13.00;99.10;;;;;;5041309;28;20856;-82
2021/09/02 06:42:46;;;;;;;27.63;13.47;;;13.00;99.10;;;;;;5041185;28;20211;-82
2021/09/02 06:45:12;;;;;;;23.67;12.67;;;13.10;99.10;;;;;;5040893;28;20489;-82
2021/09/02 06:47:39;;;;;;;32.03;14.17;;;13.20;99.10;;;;;;5041556;28;20451;-82
2021/09/02 06:50:06;;;;;;;31.25;12.25;;;13.30;99.10;;;;;;5040712;28;20165;-82
2021/09/02 06:52:32;;;;;;;26.25;13.20;;;13.30;99.10;;;;;;5041225;28;20180;-82
2021/09/02 06:54:58;;;;;;;28.37;12.93;;;13.40;99.10;;;;;;5040868;28;20193;-82
2021/09/02 06:57:24;;;;;;;34.90;13.80;;;13.40;99.10;;;;;;5041250;28;20524;-82
2021/09/02 06:59:50;;;;;;;42.55;15.07;;;13.50;99.10;;;;;;5040726;28;20177;-82
2021/09/02 07:02:16;;;;;;;26.13;13.07;;;13.60;99.10;;;;;;5039561;28;20539;-82
2021/09/02 07:04:41;;;;;;;49.17;20.70;;;13.60;99.10;;;;;;5041011;28;20464;-81
2021/09/02 07:07:07;;;;;;;36.20;17.40;;;13.70;99.10;;;;;;5040452;28;20412;-82
2021/09/02 07:09:33;;;;;;;33.00;16.43;;;13.80;99.10;;;;;;5040292;28;20169;-82
2021/09/02 07:12:00;;;;;;;32.83;15.97;;;13.90;98.80;;;;;;5040823;28;20501;-82
2021/09/02 07:14:26;;;;;;;35.42;16.08;;;14.00;98.20;;;;;;5040788;28;20192;-82
2021/09/02 07:16:52;;;;;;;30.70;15.60;;;14.10;97.80;;;;;;5040769;28;20165;-82
2021/09/02 07:19:18;;;;;;;39.47;14.47;;;14.10;98.30;;;;;;5040382;28;20422;-82
2021/09/02 07:21:46;;;;;;;38.47;15.60;;;14.10;98.40;;;;;;5041170;28;20173;-82
2021/09/02 07:24:12;;;;;;;33.85;15.40;;;14.30;98.70;;;;;;5040259;28;20439;-82
2021/09/02 07:26:39;;;;;;;29.53;14.00;;;14.40;98.10;;;;;;5040765;28;20183;-83
2021/09/02 07:29:07;;;;;;;38.97;15.48;;;14.50;97.20;;;;;;5040927;28;20197;-82
2021/09/02 07:31:33;;;;;;;37.55;15.52;;;14.60;96.80;;;;;;5041287;28;20172;-82
2021/09/02 07:33:59;;;;;;;33.53;14.02;;;14.70;96.30;;;;;;5041338;28;20295;-82
2021/09/02 07:36:25;;;;;;;25.90;13.57;;;14.70;96.70;;;;;;5040737;28;20201;-82
2021/09/02 07:38:51;;;;;;;29.50;13.30;;;14.80;96.30;;;;;;5041277;28;20177;-82
2021/09/02 07:41:17;;;;;;;25.90;13.83;;;14.80;96.20;;;;;;5041141;28;20198;-82
2021/09/02 07:43:42;;;;;;;35.60;14.20;;;14.90;96.50;;;;;;5040116;28;20478;-81
2021/09/02 07:46:10;;;;;;;29.80;14.80;;;15.00;95.50;;;;;;5041417;28;20457;-82
2021/09/02 07:48:35;;;;;;;29.90;13.68;;;15.10;95.70;;;;;;5040056;28;20443;-82
2021/09/02 07:51:02;;;;;;;26.93;13.57;;;15.20;94.70;;;;;;5041023;28;20230;-83
2021/09/02 07:53:27;;;;;;;26.50;12.85;;;15.40;94.00;;;;;;5042601;28;20422;-83
2021/09/02 07:55:53;;;;;;;24.13;12.73;;;15.50;93.90;;;;;;5042323;28;20197;-82
2021/09/02 07:58:19;;;;;;;27.00;12.83;;;15.50;94.20;;;;;;5042343;28;20407;-82
2021/09/02 08:00:46;;;;;;;23.60;11.90;;;15.70;93.70;;;;;;5042025;28;20416;-82
2021/09/02 08:03:12;;;;;;;23.40;11.75;;;15.80;92.40;;;;;;5042081;28;20192;-82
2021/09/02 08:05:38;;;;;;;30.10;12.33;;;15.90;92.70;;;;;;5040405;28;20208;-82
2021/09/02 08:08:04;;;;;;;24.83;11.50;;;16.00;92.40;;;;;;5040529;28;20189;-82
2021/09/02 08:10:30;;;;;;;22.90;11.45;;;16.10;92.10;;;;;;5039913;28;20776;-82
2021/09/02 08:12:56;;;;;;;25.23;10.83;;;16.20;91.10;;;;;;5040429;28;20169;-82
2021/09/02 08:15:23;;;;;;;27.38;12.02;;;16.30;91.80;;;;;;5040333;28;20428;-82
2021/09/02 08:17:50;;;;;;;23.80;12.18;;;16.40;91.20;;;;;;5040336;28;20548;-81
2021/09/02 08:20:17;;;;;;;25.45;10.20;;;16.50;90.70;;;;;;5039669;28;20269;-81
2021/09/02 08:22:44;;;;;;;21.63;10.82;;;16.60;90.60;;;;;;5040478;28;20629;-82
2021/09/02 08:25:11;;;;;;;31.17;11.15;;;16.70;90.70;;;;;;5040012;28;20284;-82
2021/09/02 08:27:38;;;;;;;25.52;10.38;;;16.90;89.90;;;;;;5039470;28;20296;-82
2021/09/02 08:30:05;;;;;;;25.33;11.30;;;17.00;89.60;;;;;;5040094;28;20223;-82
2021/09/02 08:32:30;;;;;;;23.00;11.77;;;17.10;88.90;;;;;;5040397;28;20169;-81
2021/09/02 08:34:56;;;;;;;18.67;10.10;;;17.20;89.10;;;;;;5039236;28;20220;-80
2021/09/02 08:37:22;;;;;;;21.27;10.77;;;17.30;88.30;;;;;;5040166;28;20228;-82
2021/09/02 08:39:48;;;;;;;23.63;10.00;;;17.50;88.30;;;;;;5039801;28;20173;-80
2021/09/02 08:42:15;;;;;;;24.80;11.53;;;17.60;87.80;;;;;;5039012;28;20412;-81
2021/09/02 08:44:42;;;;;;;23.08;10.60;;;17.70;86.40;;;;;;5039344;28;20459;-81
2021/09/02 08:47:10;;;;;;;27.67;13.30;;;17.80;86.70;;;;;;5039739;28;20576;-81
2021/09/02 08:49:36;;;;;;;29.88;14.43;;;17.90;85.90;;;;;;5038439;28;20227;-82
2021/09/02 08:52:02;;;;;;;24.45;11.90;;;18.00;85.30;;;;;;5038924;28;20264;-82
2021/09/02 08:54:30;;;;;;;23.00;11.50;;;18.10;85.20;;;;;;5039404;28;20199;-82
2021/09/02 08:56:56;;;;;;;21.65;11.27;;;18.20;85.30;;;;;;5038287;28;20633;-82
2021/09/02 08:59:22;;;;;;;27.73;10.83;;;18.30;84.50;;;;;;5037191;28;20264;-82
2021/09/02 09:01:49;;;;;;;22.80;10.60;;;18.50;83.40;;;;;;5038062;28;20192;-82
2021/09/02 09:04:15;;;;;;;20.63;9.60;;;18.60;83.10;;;;;;5038516;28;20223;-83
2021/09/02 09:06:41;;;;;;;16.80;8.02;;;18.70;82.00;;;;;;5039446;28;20177;-82
2021/09/02 09:09:15;;;;;;;15.30;9.50;;;18.80;82.30;;;;;;5039693;28;20193;-81
2021/09/02 09:11:49;;;;;;;16.85;8.15;;;19.00;82.00;;;;;;5056548;28;20886;-82
2021/09/02 09:14:20;;;;;;;21.27;10.40;;;19.20;81.20;;;;;;5039902;28;20189;-81
2021/09/02 09:16:47;;;;;;;14.02;7.75;;;19.40;81.00;;;;;;5039406;28;20161;-81
2021/09/02 09:19:49;;;;;;;17.27;8.70;;;19.60;82.00;;;;;;5039296;28;20179;-81
2021/09/02 09:22:18;;;;;;;14.57;8.02;;;19.80;79.60;;;;;;5029260;28;20184;-81
2021/09/02 09:24:49;;;;;;;15.27;8.10;;;20.00;78.90;;;;;;5039128;28;20231;-81
2021/09/02 09:27:20;;;;;;;21.85;9.88;;;20.10;78.10;;;;;;5042840;28;20172;-81
2021/09/02 09:30:11;;;;;;;15.55;8.18;;;20.30;77.80;;;;;;5043262;28;20172;-81
2021/09/02 09:32:41;;;;;;;18.30;9.25;;;20.40;78.00;;;;;;5042608;28;20621;-81
2021/09/02 09:35:10;;;;;;;18.17;9.05;;;20.50;76.70;;;;;;5059382;28;20208;-81
2021/09/02 09:37:36;;;;;;;17.30;8.10;;;20.70;76.70;;;;;;5041975;28;20209;-81
2021/09/02 09:40:41;;;;;;;18.37;8.57;;;20.90;75.80;;;;;;5042471;28;20538;-81
2021/09/02 09:43:14;;;;;;;18.88;7.95;;;21.00;76.70;;;;;;4982406;28;20413;-81
2021/09/02 09:45:51;;;;;;;20.92;7.47;;;21.20;75.10;;;;;;5036811;28;20196;-81
2021/09/02 09:48:17;;;;;;;13.88;6.78;;;21.30;73.70;;;;;;5041455;28;20212;-82
2021/09/02 09:50:44;;;;;;;12.23;7.10;;;21.50;74.10;;;;;;5042065;28;20637;-82
2021/09/02 09:53:26;;;;;;;15.77;7.47;;;21.70;73.30;;;;;;5041137;28;20408;-82
2021/09/02 09:55:53;;;;;;;15.80;8.13;;;21.80;72.60;;;;;;5040997;28;20185;-82
2021/09/02 09:58:24;;;;;;;17.58;7.90;;;22.00;69.90;;;;;;5041309;28;20231;-81
2021/09/02 10:00:54;;;;;;;17.02;8.48;;;22.10;69.10;;;;;;5058482;28;20162;-81
2021/09/02 10:03:20;;;;;;;11.15;7.13;;;22.30;69.20;;;;;;5041765;28;20227;-81
2021/09/02 10:05:48;;;;;;;21.50;7.53;;;22.40;70.50;;;;;;5042011;28;20201;-81
2021/09/02 10:08:15;;;;;;;9.68;5.68;;;22.60;66.00;;;;;;5044815;28;20335;-81
2021/09/02 10:10:41;;;;;;;14.90;6.25;;;22.70;63.30;;;;;;5041504;28;20177;-81
2021/09/02 10:13:08;;;;;;;13.98;5.85;;;22.90;64.10;;;;;;5046244;28;20179;-81
2021/09/02 10:15:34;;;;;;;11.55;6.63;;;23.20;65.10;;;;;;5046498;28;20228;-81
2021/09/02 10:18:02;;;;;;;10.48;6.00;;;23.40;63.00;;;;;;5043961;28;20545;-81
2021/09/02 10:20:32;;;;;;;13.55;6.15;;;23.60;60.80;;;;;;5063931;28;20173;-81
2021/09/02 10:23:01;;;;;;;14.98;6.07;;;23.80;63.80;;;;;;5058388;28;20621;-81
2021/09/02 10:25:33;;;;;;;17.58;6.72;;;24.00;61.40;;;;;;5040290;28;20687;-81
2021/09/02 10:28:08;;;;;;;10.20;6.55;;;24.00;60.30;;;;;;5039766;28;20200;-81
2021/09/02 10:30:48;;;;;;;10.02;5.60;;;24.20;63.00;;;;;;5040411;28;20216;-81
2021/09/02 10:33:40;;;;;;;9.73;5.78;;;24.40;60.10;;;;;;5045489;28;20181;-82
2021/09/02 10:36:12;;;;;;;18.27;7.60;;;24.40;60.10;;;;;;5044407;28;20177;-82
2021/09/02 10:38:49;;;;;;;10.65;6.57;;;24.70;59.30;;;;;;5042036;28;20184;-81
2021/09/02 10:41:41;;;;;;;14.25;6.20;;;24.80;60.60;;;;;;5043368;28;20180;-82
2021/09/02 10:44:20;;;;;;;14.05;6.60;;;24.90;61.20;;;;;;5058004;28;20193;-82
2021/09/02 10:46:51;;;;;;;12.55;7.10;;;25.20;59.40;;;;;;5041328;28;20263;-82
2021/09/02 10:49:23;;;;;;;11.15;6.40;;;25.30;58.80;;;;;;5041737;28;20237;-82
2021/09/02 10:52:25;;;;;;;14.65;7.13;;;25.40;59.60;;;;;;5041702;28;20173;-82
2021/09/02 10:54:51;;;;;;;9.75;5.25;;;25.60;58.30;;;;;;5037496;28;20204;-82
2021/09/02 10:57:17;;;;;;;11.87;6.27;;;25.60;57.10;;;;;;5041624;28;20178;-82
2021/09/02 10:59:52;;;;;;;8.23;5.77;;;25.70;57.50;;;;;;5041464;28;20412;-82
2021/09/02 11:02:21;;;;;;;10.48;5.60;;;25.80;55.40;;;;;;5041401;28;20181;-82
2021/09/02 11:04:57;;;;;;;9.45;5.10;;;25.90;55.40;;;;;;5042163;28;20189;-82
2021/09/02 11:07:48;;;;;;;12.70;5.75;;;26.00;52.20;;;;;;5042203;28;20256;-82
2021/09/02 11:10:21;;;;;;;9.73;6.03;;;26.10;53.70;;;;;;5041384;28;20174;-82
2021/09/02 11:12:56;;;;;;;11.07;6.57;;;26.20;55.30;;;;;;5041360;28;20173;-82
2021/09/02 11:15:24;;;;;;;8.18;5.20;;;26.20;53.40;;;;;;5059523;28;20200;-82
2021/09/02 11:17:58;;;;;;;11.32;5.00;;;26.50;53.20;;;;;;5041295;28;20176;-82
2021/09/02 11:20:27;;;;;;;10.50;5.90;;;26.50;51.50;;;;;;5057447;28;20164;-82
2021/09/02 11:23:07;;;;;;;7.90;5.50;;;26.60;50.40;;;;;;5041455;28;20177;-82
2021/09/02 11:25:44;;;;;;;7.88;4.90;;;26.60;53.20;;;;;;5040653;28;20312;-82
2021/09/02 11:28:11;;;;;;;10.35;4.93;;;26.80;51.90;;;;;;5057427;28;20187;-82
2021/09/02 11:30:37;;;;;;;11.98;5.00;;;26.80;51.50;;;;;;5040679;28;20169;-82
2021/09/02 11:33:05;;;;;;;10.43;5.43;;;26.90;50.90;;;;;;5041083;28;20276;-81
2021/09/02 11:35:31;;;;;;;8.98;5.13;;;26.90;51.10;;;;;;5040701;28;20456;-82
2021/09/02 11:37:57;;;;;;;9.60;4.90;;;27.00;49.10;;;;;;5041272;28;20181;-81
2021/09/02 11:40:28;;;;;;;8.87;4.30;;;27.00;48.60;;;;;;5040426;28;20712;-81
2021/09/02 11:42:56;;;;;;;9.10;4.63;;;27.10;47.80;;;;;;5040240;28;20451;-81
2021/09/02 11:45:30;;;;;;;10.10;4.38;;;27.10;48.80;;;;;;5040107;28;20220;-81
2021/09/02 11:48:01;;;;;;;8.23;4.07;;;27.10;50.30;;;;;;5040105;28;20236;-81
2021/09/02 11:50:26;;;;;;;8.80;4.35;;;27.10;49.50;;;;;;5057428;28;20172;-81
2021/09/02 11:52:53;;;;;;;11.43;6.03;;;27.10;50.40;;;;;;5040537;28;20169;-81
2021/09/02 11:55:27;;;;;;;8.50;5.00;;;27.30;49.90;;;;;;5040042;28;20192;-81
2021/09/02 11:57:55;;;;;;;13.82;4.95;;;27.40;49.10;;;;;;5040736;28;20543;-81
2021/09/02 12:00:21;;;;;;;9.77;5.15;;;27.60;48.70;;;;;;5039579;28;20172;-82
2021/09/02 12:02:57;;;;;;;8.75;5.28;;;27.50;47.80;;;;;;5039106;28;20173;-82
2021/09/02 12:05:35;;;;;;;8.50;4.97;;;27.50;48.80;;;;;;5039684;28;20199;-82
2021/09/02 12:08:04;;;;;;;8.00;4.78;;;27.50;48.40;;;;;;5056047;28;20268;-82
2021/09/02 12:10:30;;;;;;;15.10;4.07;;;27.70;47.50;;;;;;5039026;28;20173;-82
2021/09/02 12:12:58;;;;;;;15.10;5.60;;;27.70;48.10;;;;;;5040157;28;20180;-82
2021/09/02 12:15:29;;;;;;;14.18;5.25;;;27.70;50.70;;;;;;5040080;28;20197;-82
2021/09/02 12:18:11;;;;;;;12.82;5.30;;;27.70;47.90;;;;;;5040672;28;20535;-82
2021/09/02 12:20:39;;;;;;;8.57;4.53;;;27.60;49.80;;;;;;5040177;28;20172;-82
2021/09/02 12:23:23;;;;;;;6.55;3.75;;;27.70;46.70;;;;;;5040276;28;20177;-82
2021/09/02 12:26:03;;;;;;;12.73;4.68;;;27.70;48.30;;;;;;5040520;28;20201;-82
2021/09/02 12:28:38;;;;;;;7.45;4.55;;;27.80;50.00;;;;;;5040550;28;20623;-82
2021/09/02 12:31:36;;;;;;;7.95;4.10;;;27.80;45.60;;;;;;5057433;28;20165;-82
2021/09/02 12:34:20;;;;;;;9.63;4.00;;;27.50;47.80;;;;;;5039961;28;20205;-79
2021/09/02 12:37:04;;;;;;;12.57;5.25;;;27.50;47.90;;;;;;5038539;28;20629;-79
2021/09/02 12:39:35;;;;;;;9.55;5.30;;;27.30;48.40;;;;;;5038815;28;20205;-79
2021/09/02 12:42:02;;;;;;;9.18;4.78;;;27.40;49.90;;;;;;5055300;28;20223;-79